Aérodrome :
LOGIN :

S'inscrire | Disclaimer

   EN    FR    IT 

 










Légende :    VFR   VFR Marginal   IFR   IFR Intensif   IFR Très Intensif
Visi : 
Plafond : 
>= 8 km
>= 3000ft
5 à 8 km
1000 à 3000 ft
1500m à 5 km
500 à 1000 ft
800 à 1500m
200 à 500 ft
< 800m
< 200 ft
Symboles :   Orages  Brouillard  Fortes neiges  Fortes précipitations  Vent > 20 kt
SIGMETs :   Divers  Orages  Givrage  Turbulence  Onde Orograph.  Cendres Volcan.






- Altitude de l'aérodrome : 308 ft


ESIA - Karlsborg Air Base

DERNIER METAR :
  • 180950Z AUTO 21009KT 9999 SCT019/// BKN025/// 06/04 Q1006

METARs EXPIRÉS :
  • 180920Z AUTO 21008KT 9999 FEW017/// SCT025/// BKN040/// 06/05 Q1006
  • 180850Z AUTO 21007KT 9999 FEW004/// SCT011/// OVC030/// 05/05 Q1006
  • 180820Z AUTO 20008KT 9000 FEW004/// SCT007/// OVC010/// 05/04 Q1006
  • 180750Z AUTO 20008KT 5000 BR FEW004/// OVC007/// 05/04 Q1006
  • 180720Z AUTO 20007KT 9999 OVC008/// 05/04 Q1006

Prévision TAF périmée.



MET'MAP, la Météo Aéronautique d'un coup d'oeil ! - Copyright ORBIFLY Décembre 2007 - Disclaimer

ORBIFLY MET'MAP TEAM :

Programmation & Développement : Alexandra Zaïnal
Sur une idée originale de : Baudouin d'Aumeries
Assistance à la programmation : Marc-Olivier Méhu
Soutien technique & logistique : Manuel Goepfert

Contact : metmap@orbifly.com




SOURCES & CREDITS :

   NOAA